Terminal Aerodrome Forecast
Issued by NWS Albany, NY

Home | Current Version | Previous Version | Text Only | Print | Product List | Glossary On
Versions: 1 2 3 4 5 6 7 8 9 10 11 12 13 14 15 16 17 18
426
FTUS41 KALY 270235 AAA
TAFALB
TAF AMD
KALB 270235Z 2703/2724 17003KT P6SM SCT050 BKN100
     FM270800 VRB03KT 5SM BR BKN050
     FM271300 18006KT P6SM SCT050 SCT250=

USA.gov is the U.S. government's official web portal to all federal, state and local government web resources and services.